sensor_id;sensor_type;location;lat;lon;timestamp;pressure;altitude;pressure_sealevel;temperature;humidity
70730;BME280;58315;53.336;55.932;2023-05-25T00:01:18;100808.03;;;17.90;47.66
70730;BME280;58315;53.336;55.932;2023-05-25T00:03:44;100805.50;;;17.89;47.62
70730;BME280;58315;53.336;55.932;2023-05-25T00:06:11;100807.50;;;17.87;47.42
70730;BME280;58315;53.336;55.932;2023-05-25T00:08:40;100809.56;;;17.93;47.03
70730;BME280;58315;53.336;55.932;2023-05-25T00:11:06;100811.13;;;18.03;46.42
70730;BME280;58315;53.336;55.932;2023-05-25T00:13:32;100812.50;;;18.07;46.14
70730;BME280;58315;53.336;55.932;2023-05-25T00:15:58;100816.31;;;18.05;46.34
70730;BME280;58315;53.336;55.932;2023-05-25T00:18:24;100810.97;;;18.05;46.36
70730;BME280;58315;53.336;55.932;2023-05-25T00:20:51;100817.31;;;18.04;46.07
70730;BME280;58315;53.336;55.932;2023-05-25T00:23:20;100823.19;;;18.07;46.07
70730;BME280;58315;53.336;55.932;2023-05-25T00:25:46;100820.66;;;18.06;45.70
70730;BME280;58315;53.336;55.932;2023-05-25T00:28:12;100818.94;;;17.97;46.07
70730;BME280;58315;53.336;55.932;2023-05-25T00:30:39;100821.31;;;18.00;46.48
70730;BME280;58315;53.336;55.932;2023-05-25T00:33:06;100818.75;;;17.98;46.92
70730;BME280;58315;53.336;55.932;2023-05-25T00:35:33;100820.78;;;17.96;46.73
70730;BME280;58315;53.336;55.932;2023-05-25T00:37:59;100822.91;;;17.93;47.11
70730;BME280;58315;53.336;55.932;2023-05-25T00:40:25;100827.56;;;17.91;47.19
70730;BME280;58315;53.336;55.932;2023-05-25T00:42:52;100834.94;;;17.89;47.26
70730;BME280;58315;53.336;55.932;2023-05-25T00:45:18;100835.16;;;17.95;47.00
70730;BME280;58315;53.336;55.932;2023-05-25T00:47:44;100833.84;;;17.99;46.95
70730;BME280;58315;53.336;55.932;2023-05-25T00:50:14;100836.34;;;18.01;46.98
70730;BME280;58315;53.336;55.932;2023-05-25T00:52:42;100835.19;;;18.03;47.10
70730;BME280;58315;53.336;55.932;2023-05-25T00:55:09;100836.09;;;18.12;47.05
70730;BME280;58315;53.336;55.932;2023-05-25T00:57:39;100835.16;;;18.21;46.91
70730;BME280;58315;53.336;55.932;2023-05-25T01:00:07;100836.06;;;18.38;46.65
70730;BME280;58315;53.336;55.932;2023-05-25T01:02:38;100841.31;;;18.74;46.29
70730;BME280;58315;53.336;55.932;2023-05-25T01:05:07;100849.13;;;19.10;45.71
70730;BME280;58315;53.336;55.932;2023-05-25T01:07:35;100851.38;;;19.55;45.10
70730;BME280;58315;53.336;55.932;2023-05-25T01:10:04;100850.28;;;19.90;44.29
70730;BME280;58315;53.336;55.932;2023-05-25T01:12:36;100839.34;;;20.16;43.84
70730;BME280;58315;53.336;55.932;2023-05-25T01:15:04;100852.72;;;20.41;43.50
70730;BME280;58315;53.336;55.932;2023-05-25T01:17:34;100847.66;;;20.54;43.04
70730;BME280;58315;53.336;55.932;2023-05-25T01:20:03;100857.75;;;20.44;42.85
70730;BME280;58315;53.336;55.932;2023-05-25T01:22:40;100845.38;;;20.10;43.67
70730;BME280;58315;53.336;55.932;2023-05-25T01:25:12;100850.44;;;19.81;44.04
70730;BME280;58315;53.336;55.932;2023-05-25T01:27:39;100846.94;;;19.64;44.72
70730;BME280;58315;53.336;55.932;2023-05-25T01:30:12;100840.66;;;19.55;45.06
70730;BME280;58315;53.336;55.932;2023-05-25T01:32:40;100856.25;;;19.51;45.24
70730;BME280;58315;53.336;55.932;2023-05-25T01:35:08;100856.06;;;19.45;45.49
70730;BME280;58315;53.336;55.932;2023-05-25T01:37:35;100858.72;;;19.37;45.80
70730;BME280;58315;53.336;55.932;2023-05-25T01:40:03;100852.53;;;19.36;45.61
70730;BME280;58315;53.336;55.932;2023-05-25T01:42:34;100859.25;;;19.32;46.00
70730;BME280;58315;53.336;55.932;2023-05-25T01:45:03;100864.09;;;19.28;46.07
70730;BME280;58315;53.336;55.932;2023-05-25T01:48:05;100861.09;;;19.40;45.96
70730;BME280;58315;53.336;55.932;2023-05-25T01:53:09;100850.88;;;19.27;46.68
70730;BME280;58315;53.336;55.932;2023-05-25T01:55:41;100849.50;;;19.23;46.52
70730;BME280;58315;53.336;55.932;2023-05-25T01:58:08;100847.31;;;19.26;46.57
70730;BME280;58315;53.336;55.932;2023-05-25T02:00:34;100851.00;;;19.25;47.09
70730;BME280;58315;53.336;55.932;2023-05-25T02:03:03;100855.88;;;19.30;46.86
70730;BME280;58315;53.336;55.932;2023-05-25T02:05:29;100855.88;;;19.30;47.04
70730;BME280;58315;53.336;55.932;2023-05-25T02:07:56;100851.00;;;19.25;47.20
70730;BME280;58315;53.336;55.932;2023-05-25T02:10:22;100855.41;;;19.35;47.32
70730;BME280;58315;53.336;55.932;2023-05-25T02:12:48;100857.22;;;19.34;47.31
70730;BME280;58315;53.336;55.932;2023-05-25T02:15:16;100854.72;;;19.33;47.13
70730;BME280;58315;53.336;55.932;2023-05-25T02:17:42;100851.38;;;19.39;47.68
70730;BME280;58315;53.336;55.932;2023-05-25T02:20:29;100849.69;;;19.30;47.66
70730;BME280;58315;53.336;55.932;2023-05-25T02:22:55;100856.06;;;19.37;47.69
70730;BME280;58315;53.336;55.932;2023-05-25T02:25:22;100861.94;;;19.48;47.57
70730;BME280;58315;53.336;55.932;2023-05-25T02:27:49;100856.75;;;19.55;47.36
70730;BME280;58315;53.336;55.932;2023-05-25T02:30:15;100853.41;;;19.61;47.07
70730;BME280;58315;53.336;55.932;2023-05-25T02:32:41;100855.47;;;19.67;47.35
70730;BME280;58315;53.336;55.932;2023-05-25T02:35:08;100862.50;;;19.68;47.31
70730;BME280;58315;53.336;55.932;2023-05-25T02:37:35;100856.31;;;19.76;47.12
70730;BME280;58315;53.336;55.932;2023-05-25T02:40:02;100862.50;;;19.85;46.75
70730;BME280;58315;53.336;55.932;2023-05-25T02:42:31;100856.78;;;19.88;46.75
70730;BME280;58315;53.336;55.932;2023-05-25T02:44:58;100865.03;;;19.94;46.64
70730;BME280;58315;53.336;55.932;2023-05-25T02:47:24;100860.84;;;20.00;46.40
70730;BME280;58315;53.336;55.932;2023-05-25T02:49:51;100863.66;;;19.98;46.54
70730;BME280;58315;53.336;55.932;2023-05-25T02:52:17;100865.19;;;20.01;46.66
70730;BME280;58315;53.336;55.932;2023-05-25T02:54:43;100870.56;;;20.01;46.39
70730;BME280;58315;53.336;55.932;2023-05-25T02:57:16;100867.53;;;20.04;46.29
70730;BME280;58315;53.336;55.932;2023-05-25T02:59:42;100869.38;;;20.12;46.17
70730;BME280;58315;53.336;55.932;2023-05-25T03:02:08;100861.13;;;20.21;45.97
70730;BME280;58315;53.336;55.932;2023-05-25T03:04:35;100862.47;;;20.34;45.76
70730;BME280;58315;53.336;55.932;2023-05-25T03:07:04;100863.59;;;20.39;46.02
70730;BME280;58315;53.336;55.932;2023-05-25T03:09:30;100868.94;;;20.47;45.84
70730;BME280;58315;53.336;55.932;2023-05-25T03:11:57;100867.63;;;20.60;45.38
70730;BME280;58315;53.336;55.932;2023-05-25T03:14:23;100865.88;;;20.75;45.14
70730;BME280;58315;53.336;55.932;2023-05-25T03:16:55;100865.53;;;20.78;44.96
70730;BME280;58315;53.336;55.932;2023-05-25T03:19:22;100868.69;;;20.90;44.37
70730;BME280;58315;53.336;55.932;2023-05-25T03:21:48;100864.63;;;20.94;44.27
70730;BME280;58315;53.336;55.932;2023-05-25T03:24:14;100863.72;;;21.10;44.11
70730;BME280;58315;53.336;55.932;2023-05-25T03:26:41;100861.41;;;21.30;44.65
70730;BME280;58315;53.336;55.932;2023-05-25T03:29:08;100859.91;;;21.35;44.60
70730;BME280;58315;53.336;55.932;2023-05-25T03:31:34;100863.72;;;21.41;45.04
70730;BME280;58315;53.336;55.932;2023-05-25T03:34:02;100867.56;;;21.47;45.14
70730;BME280;58315;53.336;55.932;2023-05-25T03:36:29;100855.91;;;21.54;45.15
70730;BME280;58315;53.336;55.932;2023-05-25T03:38:58;100849.75;;;21.69;44.72
70730;BME280;58315;53.336;55.932;2023-05-25T03:41:26;100859.34;;;21.86;44.82
70730;BME280;58315;53.336;55.932;2023-05-25T03:43:52;100857.16;;;22.04;44.39
70730;BME280;58315;53.336;55.932;2023-05-25T03:46:19;100860.38;;;22.23;43.93
70730;BME280;58315;53.336;55.932;2023-05-25T03:48:45;100850.56;;;22.45;43.47
70730;BME280;58315;53.336;55.932;2023-05-25T03:51:11;100857.66;;;22.60;43.48
70730;BME280;58315;53.336;55.932;2023-05-25T03:53:38;100849.56;;;22.75;43.18
70730;BME280;58315;53.336;55.932;2023-05-25T03:56:05;100855.28;;;22.87;42.72
70730;BME280;58315;53.336;55.932;2023-05-25T03:58:32;100855.38;;;23.08;42.56
70730;BME280;58315;53.336;55.932;2023-05-25T04:00:58;100859.78;;;23.31;42.39
70730;BME280;58315;53.336;55.932;2023-05-25T04:03:24;100855.00;;;23.48;41.71
70730;BME280;58315;53.336;55.932;2023-05-25T04:05:53;100859.66;;;23.61;41.07
70730;BME280;58315;53.336;55.932;2023-05-25T04:08:19;100855.72;;;23.78;41.25
70730;BME280;58315;53.336;55.932;2023-05-25T04:10:45;100863.34;;;23.96;41.06
70730;BME280;58315;53.336;55.932;2023-05-25T04:13:12;100857.03;;;24.17;40.87
70730;BME280;58315;53.336;55.932;2023-05-25T04:15:38;100856.25;;;24.44;40.53
70730;BME280;58315;53.336;55.932;2023-05-25T04:18:17;100846.03;;;24.81;39.61
70730;BME280;58315;53.336;55.932;2023-05-25T04:20:45;100842.81;;;25.06;38.80
70730;BME280;58315;53.336;55.932;2023-05-25T04:23:12;100849.97;;;25.20;38.76
70730;BME280;58315;53.336;55.932;2023-05-25T04:25:41;100848.78;;;25.49;38.66
70730;BME280;58315;53.336;55.932;2023-05-25T04:28:07;100847.16;;;25.81;38.45
70730;BME280;58315;53.336;55.932;2023-05-25T04:30:54;100839.66;;;26.30;37.29
70730;BME280;58315;53.336;55.932;2023-05-25T04:33:49;100842.63;;;26.80;36.75
70730;BME280;58315;53.336;55.932;2023-05-25T04:36:22;100849.78;;;27.19;36.21
70730;BME280;58315;53.336;55.932;2023-05-25T04:38:48;100850.72;;;27.38;35.20
70730;BME280;58315;53.336;55.932;2023-05-25T04:41:17;100847.94;;;27.51;35.84
70730;BME280;58315;53.336;55.932;2023-05-25T04:43:48;100845.31;;;27.95;34.97
70730;BME280;58315;53.336;55.932;2023-05-25T04:46:16;100844.22;;;28.64;34.88
70730;BME280;58315;53.336;55.932;2023-05-25T04:48:43;100836.94;;;29.13;34.48
70730;BME280;58315;53.336;55.932;2023-05-25T04:51:11;100846.28;;;30.01;33.58
70730;BME280;58315;53.336;55.932;2023-05-25T04:53:37;100839.41;;;30.57;31.63
70730;BME280;58315;53.336;55.932;2023-05-25T04:56:06;100840.81;;;31.29;31.54
70730;BME280;58315;53.336;55.932;2023-05-25T04:58:33;100837.03;;;31.75;30.67
70730;BME280;58315;53.336;55.932;2023-05-25T05:00:59;100836.25;;;32.47;28.62
70730;BME280;58315;53.336;55.932;2023-05-25T05:03:25;100836.16;;;32.64;28.28
70730;BME280;58315;53.336;55.932;2023-05-25T05:05:52;100837.13;;;32.75;28.43
70730;BME280;58315;53.336;55.932;2023-05-25T05:08:23;100833.06;;;32.99;27.48
70730;BME280;58315;53.336;55.932;2023-05-25T05:10:50;100824.44;;;32.90;27.59
70730;BME280;58315;53.336;55.932;2023-05-25T05:13:17;100833.19;;;32.65;28.40
70730;BME280;58315;53.336;55.932;2023-05-25T05:15:43;100823.88;;;33.10;27.80
70730;BME280;58315;53.336;55.932;2023-05-25T05:18:09;100828.03;;;34.15;27.01
70730;BME280;58315;53.336;55.932;2023-05-25T05:20:35;100828.13;;;34.83;25.78
70730;BME280;58315;53.336;55.932;2023-05-25T05:23:01;100828.00;;;35.40;25.33
70730;BME280;58315;53.336;55.932;2023-05-25T05:25:28;100829.88;;;36.27;23.86
70730;BME280;58315;53.336;55.932;2023-05-25T05:27:54;100826.81;;;37.08;23.56
70730;BME280;58315;53.336;55.932;2023-05-25T05:30:26;100822.03;;;37.87;21.46
70730;BME280;58315;53.336;55.932;2023-05-25T05:32:53;100823.31;;;38.24;21.69
70730;BME280;58315;53.336;55.932;2023-05-25T05:35:21;100809.19;;;38.55;20.91
70730;BME280;58315;53.336;55.932;2023-05-25T05:37:47;100811.25;;;38.44;21.43
70730;BME280;58315;53.336;55.932;2023-05-25T05:40:13;100801.06;;;38.16;21.09
70730;BME280;58315;53.336;55.932;2023-05-25T05:42:42;100808.88;;;38.99;21.31
70730;BME280;58315;53.336;55.932;2023-05-25T05:45:09;100810.03;;;39.83;20.40
70730;BME280;58315;53.336;55.932;2023-05-25T05:47:37;100806.38;;;39.68;19.76
70730;BME280;58315;53.336;55.932;2023-05-25T05:50:03;100809.00;;;39.46;19.52
70730;BME280;58315;53.336;55.932;2023-05-25T05:52:32;100810.25;;;39.53;19.06
70730;BME280;58315;53.336;55.932;2023-05-25T05:54:58;100808.13;;;39.32;19.54
70730;BME280;58315;53.336;55.932;2023-05-25T05:57:25;100803.56;;;39.73;19.59
70730;BME280;58315;53.336;55.932;2023-05-25T05:59:51;100801.75;;;40.10;18.62
70730;BME280;58315;53.336;55.932;2023-05-25T06:02:18;100797.44;;;40.04;17.83
70730;BME280;58315;53.336;55.932;2023-05-25T06:04:44;100794.16;;;40.43;18.13
70730;BME280;58315;53.336;55.932;2023-05-25T06:07:11;100798.25;;;41.10;17.39
70730;BME280;58315;53.336;55.932;2023-05-25T06:09:37;100798.09;;;41.29;17.21
70730;BME280;58315;53.336;55.932;2023-05-25T06:12:03;100796.69;;;41.40;16.51
70730;BME280;58315;53.336;55.932;2023-05-25T06:14:29;100788.59;;;40.85;17.32
70730;BME280;58315;53.336;55.932;2023-05-25T06:16:59;100783.44;;;40.92;17.32
70730;BME280;58315;53.336;55.932;2023-05-25T06:19:26;100778.34;;;40.71;16.40
70730;BME280;58315;53.336;55.932;2023-05-25T06:21:52;100787.28;;;40.68;16.91
70730;BME280;58315;53.336;55.932;2023-05-25T06:24:20;100781.06;;;40.35;15.23
70730;BME280;58315;53.336;55.932;2023-05-25T06:26:47;100778.22;;;39.34;15.15
70730;BME280;58315;53.336;55.932;2023-05-25T06:29:13;100766.16;;;38.92;16.15
70730;BME280;58315;53.336;55.932;2023-05-25T06:31:39;100769.69;;;38.11;17.35
70730;BME280;58315;53.336;55.932;2023-05-25T06:34:06;100777.44;;;37.51;18.29
70730;BME280;58315;53.336;55.932;2023-05-25T06:36:32;100767.59;;;37.06;18.69
70730;BME280;58315;53.336;55.932;2023-05-25T06:38:58;100764.09;;;36.35;18.64
70730;BME280;58315;53.336;55.932;2023-05-25T06:41:25;100763.41;;;35.79;18.94
70730;BME280;58315;53.336;55.932;2023-05-25T06:43:54;100765.63;;;35.56;18.59
70730;BME280;58315;53.336;55.932;2023-05-25T06:46:29;100757.63;;;35.14;18.66
70730;BME280;58315;53.336;55.932;2023-05-25T06:49:01;100763.97;;;35.04;18.45
70730;BME280;58315;53.336;55.932;2023-05-25T06:51:27;100760.56;;;34.71;18.64
70730;BME280;58315;53.336;55.932;2023-05-25T06:53:54;100754.47;;;34.59;18.61
70730;BME280;58315;53.336;55.932;2023-05-25T06:56:20;100754.22;;;34.55;19.31
70730;BME280;58315;53.336;55.932;2023-05-25T06:58:48;100751.47;;;34.55;19.10
70730;BME280;58315;53.336;55.932;2023-05-25T07:01:14;100745.34;;;34.38;18.50
70730;BME280;58315;53.336;55.932;2023-05-25T07:03:41;100742.50;;;34.18;18.76
70730;BME280;58315;53.336;55.932;2023-05-25T07:06:08;100737.06;;;34.23;19.23
70730;BME280;58315;53.336;55.932;2023-05-25T07:08:35;100742.03;;;34.31;18.65
70730;BME280;58315;53.336;55.932;2023-05-25T07:11:01;100739.00;;;34.27;18.46
70730;BME280;58315;53.336;55.932;2023-05-25T07:13:27;100737.84;;;34.18;18.50
70730;BME280;58315;53.336;55.932;2023-05-25T07:15:53;100737.59;;;34.25;18.51
70730;BME280;58315;53.336;55.932;2023-05-25T07:18:20;100719.19;;;34.15;18.03
70730;BME280;58315;53.336;55.932;2023-05-25T07:20:46;100732.50;;;33.96;18.29
70730;BME280;58315;53.336;55.932;2023-05-25T07:23:13;100724.03;;;33.98;18.20
70730;BME280;58315;53.336;55.932;2023-05-25T07:25:40;100723.94;;;33.82;18.26
70730;BME280;58315;53.336;55.932;2023-05-25T07:28:07;100725.00;;;33.76;18.52
70730;BME280;58315;53.336;55.932;2023-05-25T07:30:33;100720.66;;;33.85;18.45
70730;BME280;58315;53.336;55.932;2023-05-25T07:33:00;100712.75;;;33.94;19.07
70730;BME280;58315;53.336;55.932;2023-05-25T07:35:27;100723.66;;;33.84;19.32
70730;BME280;58315;53.336;55.932;2023-05-25T07:38:01;100716.03;;;33.96;18.80
70730;BME280;58315;53.336;55.932;2023-05-25T07:40:29;100714.63;;;33.89;19.01
70730;BME280;58315;53.336;55.932;2023-05-25T07:42:55;100711.66;;;33.90;19.06
70730;BME280;58315;53.336;55.932;2023-05-25T07:45:24;100712.56;;;34.01;19.74
70730;BME280;58315;53.336;55.932;2023-05-25T07:47:50;100713.38;;;34.01;19.99
70730;BME280;58315;53.336;55.932;2023-05-25T07:50:19;100712.34;;;34.18;20.31
70730;BME280;58315;53.336;55.932;2023-05-25T07:52:45;100710.22;;;34.30;20.11
70730;BME280;58315;53.336;55.932;2023-05-25T07:55:11;100715.03;;;34.07;19.99
70730;BME280;58315;53.336;55.932;2023-05-25T07:57:37;100709.00;;;34.05;20.25
70730;BME280;58315;53.336;55.932;2023-05-25T08:00:04;100715.06;;;34.13;20.21
70730;BME280;58315;53.336;55.932;2023-05-25T08:02:39;100717.00;;;34.17;20.17
70730;BME280;58315;53.336;55.932;2023-05-25T08:05:06;100709.59;;;34.13;19.72
70730;BME280;58315;53.336;55.932;2023-05-25T08:07:33;100703.81;;;34.14;20.16
70730;BME280;58315;53.336;55.932;2023-05-25T08:09:59;100702.78;;;34.25;19.75
70730;BME280;58315;53.336;55.932;2023-05-25T08:12:26;100701.31;;;34.07;18.94
70730;BME280;58315;53.336;55.932;2023-05-25T08:14:52;100711.81;;;34.16;19.19
70730;BME280;58315;53.336;55.932;2023-05-25T08:17:20;100698.88;;;34.11;18.93
70730;BME280;58315;53.336;55.932;2023-05-25T08:19:46;100707.69;;;34.18;19.00
70730;BME280;58315;53.336;55.932;2023-05-25T08:22:12;100693.47;;;34.26;18.82
70730;BME280;58315;53.336;55.932;2023-05-25T08:24:38;100694.28;;;34.37;19.16
70730;BME280;58315;53.336;55.932;2023-05-25T08:27:04;100689.38;;;34.39;19.11
70730;BME280;58315;53.336;55.932;2023-05-25T08:29:30;100682.78;;;34.40;19.41
70730;BME280;58315;53.336;55.932;2023-05-25T08:31:56;100688.28;;;34.40;19.38
70730;BME280;58315;53.336;55.932;2023-05-25T08:34:22;100673.50;;;34.41;19.28
70730;BME280;58315;53.336;55.932;2023-05-25T08:36:48;100680.88;;;34.30;19.43
70730;BME280;58315;53.336;55.932;2023-05-25T08:39:14;100677.59;;;34.39;19.05
70730;BME280;58315;53.336;55.932;2023-05-25T08:41:44;100679.31;;;34.65;19.03
70730;BME280;58315;53.336;55.932;2023-05-25T08:44:11;100671.84;;;34.45;18.62
70730;BME280;58315;53.336;55.932;2023-05-25T08:46:39;100680.53;;;34.22;18.07
70730;BME280;58315;53.336;55.932;2023-05-25T08:49:11;100671.34;;;33.91;17.60
70730;BME280;58315;53.336;55.932;2023-05-25T08:51:40;100671.03;;;33.82;17.59
70730;BME280;58315;53.336;55.932;2023-05-25T08:54:08;100665.06;;;33.95;18.13
70730;BME280;58315;53.336;55.932;2023-05-25T08:57:16;100662.94;;;34.02;17.97
70730;BME280;58315;53.336;55.932;2023-05-25T09:00:06;100661.28;;;34.06;18.02
70730;BME280;58315;53.336;55.932;2023-05-25T09:05:17;100665.66;;;34.02;18.23
70730;BME280;58315;53.336;55.932;2023-05-25T09:07:44;100657.53;;;34.23;18.55
70730;BME280;58315;53.336;55.932;2023-05-25T09:10:11;100652.03;;;34.28;18.38
70730;BME280;58315;53.336;55.932;2023-05-25T09:12:40;100654.25;;;34.36;18.09
70730;BME280;58315;53.336;55.932;2023-05-25T09:15:09;100653.44;;;34.41;18.32
70730;BME280;58315;53.336;55.932;2023-05-25T09:17:36;100652.69;;;34.66;17.92
70730;BME280;58315;53.336;55.932;2023-05-25T09:20:02;100655.44;;;34.81;17.64
70730;BME280;58315;53.336;55.932;2023-05-25T09:22:30;100659.28;;;34.80;16.96
70730;BME280;58315;53.336;55.932;2023-05-25T09:24:57;100652.16;;;34.69;16.87
70730;BME280;58315;53.336;55.932;2023-05-25T09:27:24;100643.91;;;34.64;16.84
70730;BME280;58315;53.336;55.932;2023-05-25T09:29:51;100645.28;;;34.66;17.09
70730;BME280;58315;53.336;55.932;2023-05-25T09:32:18;100646.94;;;34.72;17.52
70730;BME280;58315;53.336;55.932;2023-05-25T09:34:47;100648.31;;;34.90;17.46
70730;BME280;58315;53.336;55.932;2023-05-25T09:37:16;100643.94;;;34.79;17.05
70730;BME280;58315;53.336;55.932;2023-05-25T09:39:43;100640.63;;;34.72;17.17
70730;BME280;58315;53.336;55.932;2023-05-25T09:42:10;100635.97;;;34.88;17.55
70730;BME280;58315;53.336;55.932;2023-05-25T09:44:37;100636.25;;;35.07;17.42
70730;BME280;58315;53.336;55.932;2023-05-25T09:47:03;100635.16;;;35.13;17.27
70730;BME280;58315;53.336;55.932;2023-05-25T09:49:30;100642.28;;;34.83;16.93
70730;BME280;58315;53.336;55.932;2023-05-25T09:51:56;100635.13;;;34.62;17.06
70730;BME280;58315;53.336;55.932;2023-05-25T09:54:22;100638.41;;;34.59;17.17
70730;BME280;58315;53.336;55.932;2023-05-25T09:56:48;100635.09;;;34.51;17.58
70730;BME280;58315;53.336;55.932;2023-05-25T09:59:14;100643.09;;;34.53;17.83
70730;BME280;58315;53.336;55.932;2023-05-25T10:01:40;100630.19;;;34.59;17.72
70730;BME280;58315;53.336;55.932;2023-05-25T10:04:08;100633.50;;;34.71;17.47
70730;BME280;58315;53.336;55.932;2023-05-25T10:06:37;100628.28;;;34.74;17.34
70730;BME280;58315;53.336;55.932;2023-05-25T10:09:05;100621.13;;;34.68;17.49
70730;BME280;58315;53.336;55.932;2023-05-25T10:11:32;100619.22;;;34.69;17.62
70730;BME280;58315;53.336;55.932;2023-05-25T10:14:02;100622.78;;;34.85;17.89
70730;BME280;58315;53.336;55.932;2023-05-25T10:16:32;100620.88;;;34.85;17.95
70730;BME280;58315;53.336;55.932;2023-05-25T10:19:14;100619.78;;;34.86;17.77
70730;BME280;58315;53.336;55.932;2023-05-25T10:21:48;100618.38;;;34.84;17.64
70730;BME280;58315;53.336;55.932;2023-05-25T10:24:23;100616.47;;;34.84;17.94
70730;BME280;58315;53.336;55.932;2023-05-25T10:26:53;100617.31;;;34.74;17.78
70730;BME280;58315;53.336;55.932;2023-05-25T10:29:19;100610.72;;;34.60;17.73
70730;BME280;58315;53.336;55.932;2023-05-25T10:31:46;100610.97;;;34.59;17.25
70730;BME280;58315;53.336;55.932;2023-05-25T10:34:13;100608.44;;;34.26;17.12
70730;BME280;58315;53.336;55.932;2023-05-25T10:36:40;100608.66;;;34.04;17.47
70730;BME280;58315;53.336;55.932;2023-05-25T10:39:06;100603.09;;;33.94;17.79
70730;BME280;58315;53.336;55.932;2023-05-25T10:41:33;100605.22;;;33.72;17.59
70730;BME280;58315;53.336;55.932;2023-05-25T10:44:00;100597.50;;;33.64;18.19
70730;BME280;58315;53.336;55.932;2023-05-25T10:46:27;100603.25;;;33.62;18.04
70730;BME280;58315;53.336;55.932;2023-05-25T10:48:54;100598.53;;;33.47;19.05
70730;BME280;58315;53.336;55.932;2023-05-25T10:54:03;100595.09;;;33.72;18.56
70730;BME280;58315;53.336;55.932;2023-05-25T10:56:30;100597.31;;;33.80;19.16
70730;BME280;58315;53.336;55.932;2023-05-25T10:58:56;100592.09;;;33.79;19.15
70730;BME280;58315;53.336;55.932;2023-05-25T11:01:22;100593.75;;;33.85;19.31
70730;BME280;58315;53.336;55.932;2023-05-25T11:04:18;100592.50;;;34.08;19.06
70730;BME280;58315;53.336;55.932;2023-05-25T11:09:24;100590.28;;;34.10;18.16
70730;BME280;58315;53.336;55.932;2023-05-25T11:14:28;100589.47;;;34.10;18.47
70730;BME280;58315;53.336;55.932;2023-05-25T11:17:09;100591.16;;;34.16;18.17
70730;BME280;58315;53.336;55.932;2023-05-25T11:19:48;100588.13;;;34.22;18.51
70730;BME280;58315;53.336;55.932;2023-05-25T11:22:22;100586.50;;;34.31;19.12
70730;BME280;58315;53.336;55.932;2023-05-25T11:24:57;100579.38;;;34.30;18.82
70730;BME280;58315;53.336;55.932;2023-05-25T11:27:26;100580.72;;;34.28;18.52
70730;BME280;58315;53.336;55.932;2023-05-25T11:29:54;100587.34;;;34.42;18.69
70730;BME280;58315;53.336;55.932;2023-05-25T11:32:22;100580.22;;;34.46;19.01
70730;BME280;58315;53.336;55.932;2023-05-25T11:34:51;100577.22;;;34.58;18.85
70730;BME280;58315;53.336;55.932;2023-05-25T11:37:20;100575.03;;;34.70;18.37
70730;BME280;58315;53.336;55.932;2023-05-25T11:39:47;100575.31;;;34.79;18.39
70730;BME280;58315;53.336;55.932;2023-05-25T11:42:14;100572.81;;;34.88;18.34
70730;BME280;58315;53.336;55.932;2023-05-25T11:44:41;100580.50;;;34.65;18.47
70730;BME280;58315;53.336;55.932;2023-05-25T11:47:09;100573.38;;;34.54;18.02
70730;BME280;58315;53.336;55.932;2023-05-25T11:49:40;100565.94;;;34.49;17.91
70730;BME280;58315;53.336;55.932;2023-05-25T11:52:09;100571.16;;;34.46;17.57
70730;BME280;58315;53.336;55.932;2023-05-25T11:54:35;100568.97;;;34.38;17.88
70730;BME280;58315;53.336;55.932;2023-05-25T11:57:17;100559.63;;;34.28;18.13
70730;BME280;58315;53.336;55.932;2023-05-25T11:59:52;100560.41;;;34.14;18.99
70730;BME280;58315;53.336;55.932;2023-05-25T12:02:19;100557.53;;;33.73;19.68
70730;BME280;58315;53.336;55.932;2023-05-25T12:04:53;100559.41;;;33.57;19.59
70730;BME280;58315;53.336;55.932;2023-05-25T12:07:20;100556.81;;;33.35;19.18
70730;BME280;58315;53.336;55.932;2023-05-25T12:09:46;100557.19;;;33.11;19.62
70730;BME280;58315;53.336;55.932;2023-05-25T12:12:12;100551.81;;;32.84;20.37
70730;BME280;58315;53.336;55.932;2023-05-25T12:14:48;100559.19;;;32.84;20.26
70730;BME280;58315;53.336;55.932;2023-05-25T12:17:19;100560.53;;;32.81;20.71
70730;BME280;58315;53.336;55.932;2023-05-25T12:19:46;100551.53;;;32.86;20.88
70730;BME280;58315;53.336;55.932;2023-05-25T12:22:14;100552.31;;;32.81;20.82
70730;BME280;58315;53.336;55.932;2023-05-25T12:24:40;100548.34;;;32.62;20.76
70730;BME280;58315;53.336;55.932;2023-05-25T12:27:19;100547.28;;;32.68;20.82
70730;BME280;58315;53.336;55.932;2023-05-25T12:29:47;100545.84;;;32.60;20.41
70730;BME280;58315;53.336;55.932;2023-05-25T12:32:14;100543.72;;;32.68;20.56
70730;BME280;58315;53.336;55.932;2023-05-25T12:34:42;100544.84;;;32.72;20.85
70730;BME280;58315;53.336;55.932;2023-05-25T12:37:18;100541.09;;;32.83;20.36
70730;BME280;58315;53.336;55.932;2023-05-25T12:39:45;100540.16;;;32.67;20.44
70730;BME280;58315;53.336;55.932;2023-05-25T12:42:13;100536.00;;;32.59;20.67
70730;BME280;58315;53.336;55.932;2023-05-25T12:44:40;100534.78;;;32.45;20.72
70730;BME280;58315;53.336;55.932;2023-05-25T12:47:16;100538.75;;;32.59;20.18
70730;BME280;58315;53.336;55.932;2023-05-25T12:49:47;100533.19;;;32.49;20.39
70730;BME280;58315;53.336;55.932;2023-05-25T12:52:33;100537.09;;;32.58;20.48
70730;BME280;58315;53.336;55.932;2023-05-25T12:55:24;100536.75;;;32.50;21.11
70730;BME280;58315;53.336;55.932;2023-05-25T12:57:52;100538.91;;;32.21;20.81
70730;BME280;58315;53.336;55.932;2023-05-25T13:00:19;100535.16;;;32.27;21.12